Time;durP1;ratioP1;P1;durP2;ratioP2;P2;SDS_P1;SDS_P2;PMS_P1;PMS_P2;Temp;Humidity;BMP_temperature;BMP_pressure;BME280_temperature;BME280_humidity;BME280_pressure;Samples;Min_cycle;Max_cycle;Signal;HPM_P1;HPM_P2
2021/08/14 00:00:43;;;;;;;9.32;4.50;;;20.60;99.90;;;;;;6213384;23;20028;-81
2021/08/14 00:03:11;;;;;;;6.75;5.88;;;20.50;99.90;;;;;;6221094;23;20023;-80
2021/08/14 00:05:39;;;;;;;10.02;6.35;;;20.50;99.90;;;;;;6221834;23;20016;-80
2021/08/14 00:08:07;;;;;;;5.88;4.35;;;20.40;99.90;;;;;;6216554;23;20387;-80
2021/08/14 00:10:34;;;;;;;8.10;6.10;;;20.40;99.90;;;;;;6221374;23;20566;-81
2021/08/14 00:13:02;;;;;;;12.75;5.63;;;20.40;99.90;;;;;;6212773;23;20356;-81
2021/08/14 00:15:30;;;;;;;5.85;3.67;;;20.50;99.90;;;;;;6219257;23;20024;-81
2021/08/14 00:17:58;;;;;;;16.52;5.60;;;20.50;99.90;;;;;;6222219;23;20012;-81
2021/08/14 00:20:26;;;;;;;7.85;5.50;;;20.50;99.90;;;;;;6157061;23;20028;-81
2021/08/14 00:22:54;;;;;;;16.55;9.02;;;20.50;99.90;;;;;;6191384;23;20021;-80
2021/08/14 00:25:21;;;;;;;8.00;5.18;;;20.60;99.90;;;;;;6181255;23;20032;-81
2021/08/14 00:27:49;;;;;;;9.05;5.22;;;20.60;99.90;;;;;;6187150;23;20029;-81
2021/08/14 00:30:17;;;;;;;9.52;5.63;;;20.60;99.90;;;;;;6191095;23;20322;-81
2021/08/14 00:32:44;;;;;;;11.75;6.43;;;20.60;99.90;;;;;;6182273;23;20028;-81
2021/08/14 00:35:12;;;;;;;15.63;5.78;;;20.60;99.90;;;;;;6188301;23;20013;-81
2021/08/14 00:37:40;;;;;;;5.60;4.57;;;20.60;99.90;;;;;;6191172;23;20013;-81
2021/08/14 00:40:09;;;;;;;7.53;5.18;;;20.50;99.90;;;;;;6179249;23;20037;-80
2021/08/14 00:42:36;;;;;;;9.32;4.97;;;20.40;99.90;;;;;;6178378;23;20021;-81
2021/08/14 00:45:07;;;;;;;11.52;7.05;;;20.40;99.90;;;;;;6154665;23;20472;-80
2021/08/14 00:47:38;;;;;;;18.52;5.57;;;20.30;99.90;;;;;;6188277;23;20345;-81
2021/08/14 00:50:07;;;;;;;6.40;5.80;;;20.30;99.90;;;;;;6190857;23;20016;-81
2021/08/14 00:52:34;;;;;;;17.67;5.90;;;20.30;99.90;;;;;;6178329;23;20025;-81
2021/08/14 00:55:03;;;;;;;14.32;6.43;;;20.30;99.90;;;;;;6188926;23;20017;-81
2021/08/14 00:57:31;;;;;;;6.75;4.80;;;20.30;99.90;;;;;;6189481;23;20013;-81
2021/08/14 00:59:59;;;;;;;19.20;6.00;;;20.30;99.90;;;;;;6178441;23;20566;-81
2021/08/14 01:02:28;;;;;;;9.73;4.97;;;20.30;99.90;;;;;;6189522;23;20025;-81
2021/08/14 01:04:56;;;;;;;8.15;4.93;;;20.40;99.90;;;;;;6182929;23;20024;-81
2021/08/14 01:07:24;;;;;;;16.35;6.10;;;20.30;99.90;;;;;;6188818;23;20040;-81
2021/08/14 01:09:51;;;;;;;13.40;5.47;;;20.40;99.90;;;;;;6191192;23;20013;-81
2021/08/14 01:12:19;;;;;;;9.73;5.38;;;20.40;99.90;;;;;;6184383;23;20330;-81
2021/08/14 01:14:49;;;;;;;18.25;7.15;;;20.40;99.90;;;;;;6189904;23;20025;-81
2021/08/14 01:17:22;;;;;;;11.98;5.45;;;20.40;99.90;;;;;;6180630;23;20056;-81
2021/08/14 01:19:50;;;;;;;7.95;4.88;;;20.40;99.90;;;;;;6200574;23;20021;-81
2021/08/14 01:22:18;;;;;;;13.75;6.07;;;20.40;99.90;;;;;;6223144;23;20016;-81
2021/08/14 01:24:46;;;;;;;7.13;5.32;;;20.40;99.90;;;;;;6215668;23;20496;-81
2021/08/14 01:27:15;;;;;;;9.00;7.05;;;20.40;99.90;;;;;;6221320;23;20351;-81
2021/08/14 01:29:43;;;;;;;9.35;6.15;;;20.30;99.90;;;;;;6223132;23;20013;-81
2021/08/14 01:32:11;;;;;;;7.45;4.93;;;20.20;99.90;;;;;;6191137;23;20356;-81
2021/08/14 01:34:43;;;;;;;14.75;5.93;;;20.10;99.90;;;;;;6223428;23;20778;-81
2021/08/14 01:37:11;;;;;;;11.02;7.90;;;20.00;99.90;;;;;;6213790;23;20029;-81
2021/08/14 01:39:39;;;;;;;11.95;5.60;;;20.00;99.90;;;;;;6185810;23;20029;-81
2021/08/14 01:42:07;;;;;;;24.90;6.13;;;19.90;99.90;;;;;;6222448;23;20012;-81
2021/08/14 01:44:36;;;;;;;8.63;5.38;;;19.90;99.90;;;;;;6189323;23;20044;-81
2021/08/14 01:47:06;;;;;;;14.25;5.30;;;19.90;99.90;;;;;;6222404;23;20016;-81
2021/08/14 01:49:33;;;;;;;10.77;7.00;;;20.00;99.90;;;;;;6223159;23;20019;-81
2021/08/14 01:52:10;;;;;;;12.40;5.63;;;20.10;99.90;;;;;;6217576;23;20024;-81
2021/08/14 01:54:39;;;;;;;7.30;5.30;;;20.10;99.90;;;;;;6222825;23;20023;-81
2021/08/14 01:57:07;;;;;;;11.30;7.32;;;20.20;99.90;;;;;;6184056;23;20024;-81
2021/08/14 01:59:36;;;;;;;9.55;5.68;;;20.20;99.90;;;;;;6193525;23;20017;-81
2021/08/14 02:02:04;;;;;;;8.02;5.70;;;20.20;99.90;;;;;;6196471;23;20023;-81
2021/08/14 02:04:32;;;;;;;7.72;5.05;;;20.20;99.90;;;;;;6215976;23;20017;-81
2021/08/14 02:07:00;;;;;;;9.18;5.65;;;20.20;99.90;;;;;;6221783;23;20437;-81
2021/08/14 02:09:28;;;;;;;11.25;6.28;;;20.20;99.90;;;;;;6223344;23;20016;-81
2021/08/14 02:11:56;;;;;;;11.52;8.38;;;20.20;99.90;;;;;;6217423;23;20029;-81
2021/08/14 02:14:24;;;;;;;8.20;5.10;;;20.30;99.90;;;;;;6223387;23;20439;-81
2021/08/14 02:16:51;;;;;;;12.57;5.72;;;20.30;99.90;;;;;;6188155;23;20448;-81
2021/08/14 02:19:19;;;;;;;12.43;5.75;;;20.30;99.90;;;;;;6219560;23;20020;-81
2021/08/14 02:21:47;;;;;;;11.07;5.38;;;20.30;99.90;;;;;;6221712;23;20017;-81
2021/08/14 02:24:15;;;;;;;9.05;5.22;;;20.30;99.90;;;;;;6190937;23;20020;-81
2021/08/14 02:26:42;;;;;;;12.52;5.47;;;20.20;99.90;;;;;;6222844;23;20019;-81
2021/08/14 02:29:11;;;;;;;10.65;5.32;;;20.20;99.90;;;;;;6213171;23;20431;-81
2021/08/14 02:31:38;;;;;;;12.60;5.57;;;20.20;99.90;;;;;;6219000;23;20020;-81
2021/08/14 02:34:07;;;;;;;7.03;4.75;;;20.10;99.90;;;;;;6223045;23;20016;-81
2021/08/14 02:36:37;;;;;;;;;;;20.10;99.90;;;;;;6215428;23;20460;-81
2021/08/14 02:39:05;;;;;;;10.07;5.70;;;20.10;99.90;;;;;;6222092;23;19916;-81
2021/08/14 02:41:32;;;;;;;8.15;5.18;;;20.10;99.90;;;;;;6222274;23;20017;-81
2021/08/14 02:44:00;;;;;;;8.98;5.85;;;20.10;99.90;;;;;;6217822;23;20020;-81
2021/08/14 02:46:28;;;;;;;11.43;6.18;;;20.10;99.90;;;;;;6222896;23;20017;-81
2021/08/14 02:48:56;;;;;;;12.05;7.35;;;20.10;99.90;;;;;;6214046;23;20020;-81
2021/08/14 02:51:23;;;;;;;10.57;5.90;;;20.00;99.90;;;;;;6219543;23;20467;-81
2021/08/14 02:53:51;;;;;;;13.65;6.75;;;19.90;99.90;;;;;;6222695;23;20016;-80
2021/08/14 02:56:18;;;;;;;7.93;5.18;;;19.90;99.90;;;;;;6216407;23;20035;-81
2021/08/14 02:58:46;;;;;;;6.03;4.75;;;19.90;99.90;;;;;;6222618;23;20013;-80
2021/08/14 03:01:14;;;;;;;12.00;5.93;;;19.80;99.90;;;;;;6185624;23;20021;-80
2021/08/14 03:03:42;;;;;;;14.73;6.75;;;19.80;99.90;;;;;;6219117;23;20021;-81
2021/08/14 03:06:26;;;;;;;14.73;5.65;;;19.70;99.90;;;;;;6221948;23;20009;-81
2021/08/14 03:08:55;;;;;;;12.48;6.45;;;19.80;99.90;;;;;;6213997;23;20020;-81
2021/08/14 03:11:23;;;;;;;7.35;6.03;;;19.80;99.90;;;;;;6219593;23;20012;-81
2021/08/14 03:13:50;;;;;;;9.60;6.10;;;19.70;99.90;;;;;;6184986;23;20023;-80
2021/08/14 03:16:18;;;;;;;9.73;6.90;;;19.50;99.90;;;;;;6184409;23;20433;-81
2021/08/14 03:18:46;;;;;;;7.18;6.47;;;19.50;99.90;;;;;;6195382;23;20020;-80
2021/08/14 03:21:13;;;;;;;6.40;5.22;;;19.40;99.90;;;;;;6182919;23;20036;-81
2021/08/14 03:23:41;;;;;;;10.63;6.15;;;19.30;99.90;;;;;;6218973;23;20032;-81
2021/08/14 03:26:09;;;;;;;9.90;5.45;;;19.30;99.90;;;;;;6184569;23;20027;-81
2021/08/14 03:28:37;;;;;;;8.20;5.43;;;19.20;99.90;;;;;;6214143;23;20032;-81
2021/08/14 03:31:04;;;;;;;13.55;6.30;;;19.20;99.90;;;;;;6221458;23;20016;-81
2021/08/14 03:33:32;;;;;;;7.68;5.05;;;19.10;99.90;;;;;;6222346;23;20016;-81
2021/08/14 03:36:00;;;;;;;9.25;5.57;;;19.10;99.90;;;;;;6216809;23;20021;-81
2021/08/14 03:38:27;;;;;;;12.38;5.68;;;19.10;99.90;;;;;;6222412;23;20035;-82
2021/08/14 03:40:55;;;;;;;13.55;6.43;;;19.10;99.90;;;;;;6212699;23;20021;-81
2021/08/14 03:43:23;;;;;;;7.55;6.30;;;19.10;99.90;;;;;;6192817;23;20020;-81
2021/08/14 03:45:53;;;;;;;7.15;6.20;;;19.10;99.90;;;;;;6159900;23;20356;-82
2021/08/14 03:48:21;;;;;;;11.48;6.63;;;19.10;99.90;;;;;;6215970;23;20032;-82
2021/08/14 03:50:49;;;;;;;20.60;6.63;;;19.00;99.90;;;;;;6194682;23;20463;-81
2021/08/14 03:53:17;;;;;;;12.77;6.55;;;19.00;99.90;;;;;;6211264;23;20035;-82
2021/08/14 03:55:45;;;;;;;15.77;6.80;;;19.00;99.90;;;;;;6217897;23;20805;-80
2021/08/14 03:58:13;;;;;;;8.32;5.57;;;19.00;99.90;;;;;;6221285;23;20020;-80
2021/08/14 04:00:41;;;;;;;14.00;6.97;;;19.00;99.90;;;;;;6214110;23;20035;-80
2021/08/14 04:03:08;;;;;;;9.68;6.32;;;19.00;99.90;;;;;;6220600;23;20024;-80
2021/08/14 04:05:36;;;;;;;7.70;6.05;;;19.00;99.90;;;;;;6221427;23;20017;-80
2021/08/14 04:08:04;;;;;;;15.98;6.68;;;18.90;99.90;;;;;;6215723;23;20040;-78
2021/08/14 04:10:32;;;;;;;10.85;7.13;;;18.90;99.90;;;;;;6221689;23;20012;-78
2021/08/14 04:13:00;;;;;;;21.48;8.23;;;18.90;99.90;;;;;;6212041;23;20066;-78
2021/08/14 04:15:29;;;;;;;9.80;4.43;;;18.90;99.90;;;;;;6218845;23;20020;-78
2021/08/14 04:17:57;;;;;;;6.28;5.35;;;18.80;99.90;;;;;;6184294;23;20021;-78
2021/08/14 04:20:24;;;;;;;9.38;7.05;;;18.70;99.90;;;;;;6212151;23;20017;-78
2021/08/14 04:22:52;;;;;;;13.13;6.50;;;18.70;99.90;;;;;;6221344;23;20032;-78
2021/08/14 04:25:23;;;;;;;7.85;6.82;;;18.70;99.90;;;;;;6184613;23;20032;-78
2021/08/14 04:27:56;;;;;;;40.08;10.05;;;18.60;99.90;;;;;;6184781;23;20058;-78
2021/08/14 04:30:23;;;;;;;8.80;7.07;;;18.60;99.90;;;;;;6221175;23;20327;-78
2021/08/14 04:32:53;;;;;;;8.05;6.65;;;18.60;99.90;;;;;;6212468;23;20357;-78
2021/08/14 04:35:21;;;;;;;8.43;6.28;;;18.70;99.90;;;;;;6192338;23;20020;-78
2021/08/14 04:37:50;;;;;;;8.18;5.78;;;18.60;99.90;;;;;;6194810;23;20024;-78
2021/08/14 04:40:18;;;;;;;10.20;6.18;;;18.50;99.90;;;;;;6188570;23;20031;-78
2021/08/14 04:42:46;;;;;;;11.25;6.82;;;18.50;99.90;;;;;;6220963;23;20020;-78
2021/08/14 04:45:14;;;;;;;11.02;7.60;;;18.50;99.90;;;;;;6211224;23;20021;-78
2021/08/14 04:47:42;;;;;;;7.53;6.28;;;18.50;99.90;;;;;;6191245;23;20029;-78
2021/08/14 04:50:11;;;;;;;8.38;6.20;;;18.50;99.90;;;;;;6220502;23;20017;-78
2021/08/14 04:52:38;;;;;;;6.38;5.75;;;18.50;99.90;;;;;;6186988;23;20196;-78
2021/08/14 04:55:06;;;;;;;6.22;5.53;;;18.60;99.90;;;;;;6218632;23;20008;-78
2021/08/14 04:57:34;;;;;;;9.23;6.18;;;18.60;99.90;;;;;;6183462;23;20071;-78
2021/08/14 05:00:04;;;;;;;7.82;5.35;;;18.60;99.90;;;;;;6158539;23;20348;-78
2021/08/14 05:02:31;;;;;;;21.52;8.02;;;18.60;99.90;;;;;;6194999;23;20032;-78
2021/08/14 05:04:59;;;;;;;11.35;7.20;;;18.60;99.90;;;;;;6212146;23;20032;-78
2021/08/14 05:07:27;;;;;;;8.35;6.25;;;18.50;99.90;;;;;;6192303;23;20524;-78
2021/08/14 05:09:55;;;;;;;9.70;5.10;;;18.60;99.90;;;;;;6221347;23;20032;-78
2021/08/14 05:12:22;;;;;;;11.68;6.97;;;18.50;99.90;;;;;;6133778;23;20025;-78
2021/08/14 05:14:50;;;;;;;7.95;6.65;;;18.60;99.90;;;;;;6221312;23;20019;-78
2021/08/14 05:17:18;;;;;;;12.65;5.15;;;18.60;99.90;;;;;;6210438;23;20027;-78
2021/08/14 05:19:46;;;;;;;13.18;6.28;;;18.70;99.90;;;;;;6215752;23;20048;-78
2021/08/14 05:22:13;;;;;;;7.55;5.95;;;18.80;99.90;;;;;;6220004;23;20015;-78
2021/08/14 05:24:41;;;;;;;8.27;7.47;;;18.70;99.90;;;;;;6183982;23;20021;-78
2021/08/14 05:27:09;;;;;;;11.25;5.63;;;18.80;99.90;;;;;;6218714;23;20023;-79
2021/08/14 05:29:38;;;;;;;7.78;6.97;;;18.80;99.90;;;;;;6220990;23;20012;-83
2021/08/14 05:32:07;;;;;;;10.05;7.63;;;18.90;99.90;;;;;;6215597;23;20017;-83
2021/08/14 05:34:35;;;;;;;10.20;6.20;;;18.90;99.90;;;;;;6194992;23;20348;-84
2021/08/14 05:37:02;;;;;;;11.88;6.88;;;19.00;99.90;;;;;;6184983;23;20025;-83
2021/08/14 05:39:31;;;;;;;10.60;7.75;;;19.00;99.90;;;;;;6191953;23;20048;-83
2021/08/14 05:41:59;;;;;;;14.75;8.02;;;19.10;99.90;;;;;;6220504;23;20546;-83
2021/08/14 05:44:29;;;;;;;11.63;6.72;;;19.20;99.90;;;;;;6158490;23;20033;-83
2021/08/14 05:46:59;;;;;;;13.20;7.57;;;19.30;99.90;;;;;;6220574;23;20021;-84
2021/08/14 05:49:27;;;;;;;9.75;6.00;;;19.50;99.90;;;;;;6221050;23;20017;-84
2021/08/14 05:51:58;;;;;;;19.17;11.32;;;19.50;99.90;;;;;;6208435;23;20021;-83
2021/08/14 05:54:25;;;;;;;13.02;7.05;;;19.80;99.90;;;;;;6220954;23;20023;-84
2021/08/14 05:56:53;;;;;;;9.05;6.90;;;20.00;99.90;;;;;;6212666;23;20027;-84
2021/08/14 05:59:21;;;;;;;12.88;6.38;;;20.10;99.90;;;;;;6182403;23;20024;-84
2021/08/14 06:01:48;;;;;;;18.80;8.93;;;20.20;99.90;;;;;;6220971;23;20459;-84
2021/08/14 06:04:16;;;;;;;10.57;8.35;;;20.40;99.90;;;;;;6183095;23;20399;-84
2021/08/14 06:06:47;;;;;;;13.93;9.45;;;20.50;99.90;;;;;;6220372;23;20728;-84
2021/08/14 06:09:15;;;;;;;12.40;8.75;;;20.70;99.90;;;;;;6184521;23;20024;-84
2021/08/14 06:11:43;;;;;;;13.05;8.85;;;20.80;99.90;;;;;;6218976;23;20024;-84
2021/08/14 06:14:10;;;;;;;10.88;8.02;;;20.90;99.90;;;;;;6160259;23;20023;-84
2021/08/14 06:16:39;;;;;;;11.80;7.47;;;21.00;99.90;;;;;;6215000;23;20348;-84
2021/08/14 06:19:07;;;;;;;8.25;5.75;;;21.00;99.90;;;;;;6219996;23;20016;-84
2021/08/14 06:21:35;;;;;;;13.75;6.90;;;21.10;99.90;;;;;;6221845;23;20013;-85
2021/08/14 06:24:03;;;;;;;13.73;7.20;;;21.20;99.90;;;;;;6191064;23;20025;-85
2021/08/14 06:26:31;;;;;;;14.95;7.70;;;21.30;99.90;;;;;;6185329;23;20020;-85
2021/08/14 06:28:59;;;;;;;12.63;9.70;;;21.60;99.90;;;;;;6213242;23;20023;-85
2021/08/14 06:31:27;;;;;;;12.63;6.55;;;21.80;99.90;;;;;;6219677;23;20017;-85
2021/08/14 06:33:55;;;;;;;11.68;6.25;;;21.90;99.90;;;;;;6160315;23;20534;-85
2021/08/14 06:36:23;;;;;;;10.52;5.65;;;22.00;99.90;;;;;;6185096;23;20355;-85
2021/08/14 06:38:50;;;;;;;14.77;5.07;;;22.20;99.90;;;;;;6185796;23;20013;-80
2021/08/14 06:41:18;;;;;;;12.18;6.90;;;22.20;99.90;;;;;;6183875;23;20028;-80
2021/08/14 06:43:46;;;;;;;11.68;6.55;;;22.30;99.90;;;;;;6218387;23;20590;-80
2021/08/14 06:46:13;;;;;;;13.30;6.95;;;22.30;99.90;;;;;;6222068;23;20013;-80
2021/08/14 06:48:41;;;;;;;11.43;9.23;;;22.40;99.90;;;;;;6188694;23;20020;-81
2021/08/14 06:51:13;;;;;;;7.10;5.82;;;22.40;99.90;;;;;;6181027;23;20021;-80
2021/08/14 06:53:41;;;;;;;10.77;6.53;;;22.50;99.90;;;;;;6166322;23;20020;-80
2021/08/14 06:56:09;;;;;;;12.55;6.72;;;22.50;99.90;;;;;;6186876;23;20036;-80
2021/08/14 06:58:37;;;;;;;8.88;6.75;;;22.70;99.90;;;;;;6192123;23;20636;-80
2021/08/14 07:01:04;;;;;;;8.82;6.40;;;22.70;99.90;;;;;;6182570;23;20028;-80
2021/08/14 07:03:34;;;;;;;14.95;5.90;;;22.60;99.90;;;;;;6189312;23;20013;-81
2021/08/14 07:06:07;;;;;;;12.45;5.65;;;22.60;99.90;;;;;;6191870;23;20554;-81
2021/08/14 07:08:35;;;;;;;25.27;7.10;;;22.70;99.90;;;;;;6184835;23;20032;-84
2021/08/14 07:11:02;;;;;;;5.78;5.18;;;23.00;99.90;;;;;;6153988;23;20020;-86
2021/08/14 07:13:30;;;;;;;9.05;6.90;;;23.10;99.90;;;;;;6165158;23;20017;-77
2021/08/14 07:15:58;;;;;;;8.13;7.13;;;23.40;99.90;;;;;;6187267;23;20025;-77
2021/08/14 07:18:25;;;;;;;8.25;5.00;;;23.80;99.90;;;;;;6192081;23;20720;-77
2021/08/14 07:20:53;;;;;;;6.63;5.13;;;23.80;99.90;;;;;;6154655;23;20021;-77
2021/08/14 07:23:21;;;;;;;8.10;5.68;;;23.70;99.90;;;;;;6163516;23;20021;-77
2021/08/14 07:25:50;;;;;;;9.88;5.82;;;23.80;99.90;;;;;;6191553;23;20017;-78
2021/08/14 07:28:19;;;;;;;8.50;6.47;;;23.90;99.90;;;;;;6185355;23;20029;-77
2021/08/14 07:30:48;;;;;;;8.18;6.05;;;23.90;99.90;;;;;;6191731;23;20024;-77
2021/08/14 07:33:16;;;;;;;8.75;6.28;;;24.00;99.90;;;;;;6181639;23;20025;-78
2021/08/14 07:35:44;;;;;;;9.05;6.60;;;23.90;99.90;;;;;;6187904;23;20017;-77
2021/08/14 07:38:14;;;;;;;9.63;5.45;;;23.90;99.90;;;;;;6191718;23;20013;-79
2021/08/14 07:40:42;;;;;;;5.57;4.18;;;23.90;99.90;;;;;;6153545;23;20035;-78
2021/08/14 07:43:10;;;;;;;6.55;4.82;;;23.90;99.90;;;;;;6189801;23;20456;-77
2021/08/14 07:45:38;;;;;;;7.90;5.55;;;24.10;99.90;;;;;;6165536;23;20493;-77
2021/08/14 07:48:07;;;;;;;10.07;6.90;;;24.20;99.90;;;;;;6186502;23;20025;-75
2021/08/14 07:50:35;;;;;;;7.75;5.07;;;24.10;99.90;;;;;;6164407;23;20026;-76
2021/08/14 07:53:03;;;;;;;11.18;6.47;;;24.10;99.90;;;;;;6181844;23;20021;-76
2021/08/14 07:55:32;;;;;;;8.63;5.65;;;24.20;99.90;;;;;;6130135;23;20364;-75
2021/08/14 07:58:00;;;;;;;9.68;6.28;;;24.20;99.90;;;;;;6191466;23;20691;-75
2021/08/14 08:00:28;;;;;;;8.40;5.68;;;24.50;99.90;;;;;;6184749;23;20353;-76
2021/08/14 08:02:56;;;;;;;6.65;5.05;;;24.60;99.90;;;;;;6165009;23;20017;-76
2021/08/14 08:05:25;;;;;;;6.72;6.03;;;24.40;99.90;;;;;;6179768;23;20017;-76
2021/08/14 08:07:53;;;;;;;10.48;5.20;;;24.50;99.90;;;;;;6129852;23;20021;-76
2021/08/14 08:10:21;;;;;;;6.35;4.13;;;24.60;99.90;;;;;;6165405;23;20024;-76
2021/08/14 08:12:49;;;;;;;13.85;5.82;;;24.70;99.90;;;;;;6182930;23;20021;-77
2021/08/14 08:15:18;;;;;;;11.50;5.97;;;24.70;99.90;;;;;;6189431;23;20535;-75
2021/08/14 08:17:46;;;;;;;8.98;5.35;;;24.70;99.90;;;;;;6191311;23;20028;-74
2021/08/14 08:20:16;;;;;;;6.13;4.35;;;24.90;99.90;;;;;;6182977;23;20412;-76
2021/08/14 08:22:46;;;;;;;7.30;5.70;;;24.90;99.90;;;;;;6191317;23;20024;-76
2021/08/14 08:25:21;;;;;;;9.35;5.68;;;24.90;99.90;;;;;;6180988;23;20024;-75
2021/08/14 08:27:50;;;;;;;7.13;5.50;;;24.70;99.90;;;;;;6186735;23;20032;-75
2021/08/14 08:30:19;;;;;;;7.93;5.07;;;24.70;99.90;;;;;;6190348;23;20013;-75
2021/08/14 08:32:47;;;;;;;5.80;4.97;;;24.60;99.90;;;;;;6183269;23;20021;-75
2021/08/14 08:35:16;;;;;;;9.05;5.88;;;24.60;99.90;;;;;;6162732;23;20013;-76
2021/08/14 08:37:43;;;;;;;7.45;4.88;;;24.70;99.90;;;;;;6191370;23;20013;-75
2021/08/14 08:40:14;;;;;;;10.45;5.25;;;24.70;99.90;;;;;;6185422;23;20338;-76
2021/08/14 08:42:44;;;;;;;8.07;5.10;;;24.80;99.90;;;;;;6190783;23;20009;-75
2021/08/14 08:45:12;;;;;;;6.03;4.30;;;24.90;99.90;;;;;;6180935;23;20029;-75
2021/08/14 08:47:45;;;;;;;12.82;5.30;;;24.80;99.90;;;;;;6187883;23;20036;-76
2021/08/14 08:50:14;;;;;;;11.80;4.68;;;24.80;99.90;;;;;;6190453;23;20025;-75
2021/08/14 08:52:44;;;;;;;5.18;4.65;;;24.80;99.90;;;;;;6183174;23;20460;-75
2021/08/14 08:55:13;;;;;;;26.30;6.20;;;24.80;99.90;;;;;;6189692;23;20712;-77
2021/08/14 08:57:41;;;;;;;7.65;5.57;;;24.90;99.90;;;;;;6190422;23;20025;-76
2021/08/14 09:00:14;;;;;;;7.30;6.00;;;25.00;99.90;;;;;;6185720;23;20029;-76
2021/08/14 09:02:47;;;;;;;7.88;6.50;;;25.10;99.90;;;;;;6191267;23;20009;-76
2021/08/14 09:05:18;;;;;;;9.45;5.72;;;25.20;99.90;;;;;;6181450;23;20029;-76
2021/08/14 09:07:50;;;;;;;6.60;5.75;;;25.20;99.90;;;;;;6180466;23;20037;-76
2021/08/14 09:10:25;;;;;;;7.20;5.03;;;25.20;99.90;;;;;;6191260;23;20036;-76
2021/08/14 09:12:53;;;;;;;5.45;4.47;;;25.20;99.90;;;;;;6182011;23;20433;-75
2021/08/14 09:15:30;;;;;;;7.47;5.47;;;25.10;99.90;;;;;;6188789;23;20369;-76
2021/08/14 09:18:02;;;;;;;6.43;5.70;;;25.10;99.90;;;;;;6191103;23;20507;-75
2021/08/14 09:20:33;;;;;;;9.35;6.88;;;25.00;99.90;;;;;;6182583;23;20025;-75
2021/08/14 09:23:04;;;;;;;7.22;5.20;;;25.10;99.90;;;;;;6190608;23;20014;-76
2021/08/14 09:25:49;;;;;;;8.15;6.07;;;25.00;99.90;;;;;;6165074;23;20020;-76
2021/08/14 09:28:35;;;;;;;7.38;5.15;;;25.10;99.90;;;;;;6180048;23;20021;-75
2021/08/14 09:31:08;;;;;;;30.77;7.35;;;25.30;99.90;;;;;;6189227;23;20013;-76
2021/08/14 09:33:42;;;;;;;4.97;4.53;;;25.30;99.90;;;;;;6130693;23;20028;-77
2021/08/14 09:36:11;;;;;;;6.50;5.38;;;25.50;99.90;;;;;;6184961;23;20047;-75
2021/08/14 09:38:44;;;;;;;8.90;6.55;;;25.60;99.90;;;;;;6191078;23;20017;-75
2021/08/14 09:41:19;;;;;;;7.88;5.68;;;25.40;99.90;;;;;;6129379;23;20037;-75
2021/08/14 09:43:53;;;;;;;7.90;5.30;;;25.40;99.90;;;;;;6156628;23;20059;-75
2021/08/14 09:46:21;;;;;;;8.85;6.25;;;25.30;99.90;;;;;;6155392;23;20340;-76
2021/08/14 09:48:56;;;;;;;8.60;7.72;;;25.20;99.90;;;;;;6184853;23;20029;-77
2021/08/14 09:51:31;;;;;;;6.60;4.80;;;25.30;99.90;;;;;;6189687;23;20028;-76
2021/08/14 09:54:04;;;;;;;10.32;6.80;;;25.40;99.90;;;;;;6154647;23;20329;-76
2021/08/14 09:56:35;;;;;;;9.68;5.72;;;25.30;99.90;;;;;;6185859;23;20523;-76
2021/08/14 09:59:04;;;;;;;6.20;5.60;;;25.40;99.90;;;;;;6191569;23;20016;-75
2021/08/14 10:01:42;;;;;;;8.43;5.75;;;25.40;99.90;;;;;;6188987;23;20020;-75
2021/08/14 10:04:24;;;;;;;15.85;7.00;;;25.40;99.90;;;;;;6181796;23;20511;-75
2021/08/14 10:07:02;;;;;;;9.15;5.60;;;25.60;99.90;;;;;;6155047;23;20318;-75
2021/08/14 10:09:39;;;;;;;7.53;5.15;;;25.70;99.90;;;;;;6157596;23;20464;-75
2021/08/14 10:12:16;;;;;;;7.82;4.65;;;25.80;99.90;;;;;;6154940;23;20028;-75
2021/08/14 10:14:51;;;;;;;6.10;5.38;;;25.80;99.90;;;;;;6181751;23;20016;-75
2021/08/14 10:17:24;;;;;;;8.52;5.82;;;26.00;99.90;;;;;;6180469;23;20029;-76
2021/08/14 10:19:53;;;;;;;11.82;6.63;;;26.00;99.90;;;;;;6186876;23;20031;-76
2021/08/14 10:22:25;;;;;;;6.90;6.25;;;26.10;99.90;;;;;;6191733;23;20322;-76
2021/08/14 10:24:55;;;;;;;7.85;5.75;;;26.20;99.90;;;;;;6183878;23;20033;-76
2021/08/14 10:27:23;;;;;;;10.10;5.57;;;26.30;99.90;;;;;;6138861;23;20021;-77
2021/08/14 10:29:58;;;;;;;8.48;5.95;;;26.40;99.90;;;;;;6165894;23;20519;-76
2021/08/14 10:32:34;;;;;;;8.63;5.72;;;26.50;99.90;;;;;;6159887;23;20033;-76
2021/08/14 10:35:22;;;;;;;10.88;5.68;;;26.50;99.90;;;;;;6191535;23;20017;-76
2021/08/14 10:37:50;;;;;;;9.75;5.03;;;26.50;99.90;;;;;;6181375;23;20497;-76
2021/08/14 10:40:19;;;;;;;6.50;5.82;;;26.50;99.90;;;;;;6186001;23;20736;-76
2021/08/14 10:42:51;;;;;;;12.32;5.40;;;26.50;99.90;;;;;;6154998;23;20017;-77
2021/08/14 10:45:21;;;;;;;6.43;4.93;;;26.50;99.90;;;;;;6182250;23;20033;-77
2021/08/14 10:47:54;;;;;;;7.72;6.25;;;26.40;99.90;;;;;;6181414;23;20479;-77
2021/08/14 10:50:31;;;;;;;8.30;5.38;;;26.30;99.90;;;;;;6192125;23;20021;-76
2021/08/14 10:53:11;;;;;;;9.55;5.05;;;26.40;99.90;;;;;;6156715;23;20025;-77
2021/08/14 10:55:41;;;;;;;8.82;5.82;;;26.50;99.90;;;;;;6163059;23;20032;-77
2021/08/14 10:58:28;;;;;;;10.63;6.07;;;26.60;99.90;;;;;;6191424;23;20024;-77
2021/08/14 11:01:04;;;;;;;6.85;5.35;;;26.50;99.90;;;;;;6156622;23;20025;-77
2021/08/14 11:03:38;;;;;;;8.93;6.25;;;26.40;99.90;;;;;;6181396;23;20440;-77
2021/08/14 11:06:27;;;;;;;11.80;5.93;;;26.40;99.90;;;;;;6191792;23;20017;-77
2021/08/14 11:09:29;;;;;;;11.60;6.35;;;26.50;99.90;;;;;;6156922;23;20350;-76
2021/08/14 11:12:02;;;;;;;7.63;5.55;;;26.70;99.90;;;;;;6186853;23;20025;-76
2021/08/14 11:14:42;;;;;;;6.30;5.28;;;26.80;99.90;;;;;;6192244;23;20062;-77
2021/08/14 11:17:14;;;;;;;6.57;5.50;;;26.90;99.90;;;;;;6153604;23;20025;-76
2021/08/14 11:19:50;;;;;;;10.02;5.35;;;27.00;99.90;;;;;;6181020;23;20028;-76
2021/08/14 11:22:42;;;;;;;8.55;6.07;;;27.10;99.90;;;;;;6191289;23;20013;-77
2021/08/14 11:25:23;;;;;;;10.50;6.93;;;26.90;99.90;;;;;;6182583;23;20025;-75
2021/08/14 11:28:00;;;;;;;5.93;5.10;;;26.80;99.90;;;;;;6180811;23;20036;-76
2021/08/14 11:30:31;;;;;;;14.65;6.03;;;26.80;99.90;;;;;;6191736;23;20448;-77
2021/08/14 11:33:08;;;;;;;15.90;7.68;;;27.00;99.90;;;;;;6156995;23;20033;-78
2021/08/14 11:35:43;;;;;;;10.50;5.68;;;27.10;99.90;;;;;;6180705;23;20017;-77
2021/08/14 11:38:13;;;;;;;8.15;5.40;;;27.10;99.90;;;;;;6191752;23;20024;-76
2021/08/14 11:40:44;;;;;;;8.77;5.97;;;27.10;99.90;;;;;;6183535;23;20032;-76
2021/08/14 11:43:13;;;;;;;;;;;27.10;99.90;;;;;;6190545;23;20024;-77
2021/08/14 11:45:43;;;;;;;9.13;5.68;;;27.10;99.90;;;;;;6192188;23;20235;-79
2021/08/14 11:48:17;;;;;;;10.02;5.40;;;27.10;99.90;;;;;;6186018;23;20021;-79
2021/08/14 11:50:47;;;;;;;10.88;5.88;;;27.30;99.90;;;;;;6191758;23;20020;-80
2021/08/14 11:53:25;;;;;;;8.73;5.60;;;27.30;99.90;;;;;;6181483;23;20028;-81
2021/08/14 11:56:11;;;;;;;8.80;6.20;;;27.20;99.90;;;;;;6161013;23;20033;-80
2021/08/14 11:58:41;;;;;;;18.73;6.82;;;27.20;99.90;;;;;;6153706;23;20024;-80
2021/08/14 12:01:12;;;;;;;9.73;5.88;;;27.40;99.90;;;;;;6153630;23;20653;-80
2021/08/14 12:03:40;;;;;;;9.25;4.95;;;27.60;99.90;;;;;;6153558;23;20032;-80
2021/08/14 12:06:13;;;;;;;8.02;6.28;;;27.70;99.90;;;;;;6162361;23;20052;-81
2021/08/14 12:08:44;;;;;;;6.60;5.97;;;27.80;99.90;;;;;;6183783;23;20029;-80
2021/08/14 12:11:23;;;;;;;8.23;7.30;;;27.70;99.90;;;;;;6189423;23;20009;-79
2021/08/14 12:14:12;;;;;;;7.25;6.43;;;27.80;99.90;;;;;;6191287;23;20325;-80
2021/08/14 12:16:41;;;;;;;7.25;6.20;;;27.70;99.90;;;;;;6183989;23;20025;-80
2021/08/14 12:19:14;;;;;;;7.07;6.13;;;27.80;99.90;;;;;;6189876;23;20020;-81
2021/08/14 12:21:44;;;;;;;8.18;5.93;;;27.80;99.90;;;;;;6190448;23;20020;-80
2021/08/14 12:24:12;;;;;;;17.13;7.68;;;27.90;99.90;;;;;;6153509;23;20349;-80
2021/08/14 12:26:42;;;;;;;11.05;6.25;;;27.80;99.90;;;;;;6191615;23;20013;-81
2021/08/14 12:29:15;;;;;;;6.82;6.22;;;27.70;99.90;;;;;;6181534;23;20460;-80
2021/08/14 12:31:47;;;;;;;9.57;7.15;;;27.80;99.90;;;;;;6161489;23;20024;-80
2021/08/14 12:34:22;;;;;;;9.55;5.60;;;27.90;99.90;;;;;;6191310;23;20021;-81
2021/08/14 12:37:07;;;;;;;11.27;7.07;;;27.90;99.90;;;;;;6156436;23;20461;-80
2021/08/14 12:39:54;;;;;;;8.38;6.72;;;28.00;99.90;;;;;;6162049;23;20021;-80
2021/08/14 12:42:32;;;;;;;8.10;6.25;;;28.20;99.90;;;;;;6191034;23;20020;-80
2021/08/14 12:45:23;;;;;;;8.82;6.80;;;28.30;99.90;;;;;;6181889;23;20032;-80
2021/08/14 12:47:52;;;;;;;8.95;5.32;;;28.30;99.90;;;;;;6187576;23;20040;-80
2021/08/14 12:50:32;;;;;;;9.13;5.90;;;28.20;99.90;;;;;;6191119;23;20042;-80
2021/08/14 12:53:05;;;;;;;8.00;5.82;;;28.40;99.90;;;;;;6181823;23;20029;-80
2021/08/14 12:55:43;;;;;;;12.40;6.80;;;28.50;99.90;;;;;;6162140;23;20025;-79
2021/08/14 12:58:14;;;;;;;8.75;7.88;;;28.50;99.90;;;;;;6190943;23;20013;-79